Airport ID:KO69
Update Time (UTC):10/07/2020 20:22
Wind Speed (Knots):5
Wind Direction (Magnetic):280
Temperature (°C):31
Dew Point (°C):10
Humidity (%):28
Altimeter (inHg):29.99
Density Altitude (Feet):2000
Visibility:10+
Clouds (Hundreds of feet):CLR
Present Weather:
METAR:METAR KO69 102020Z AUTO 27007KT 240V300 10SM CLR 31/09 A2999 RMK A01

The data displayed is for advisory purposes only and is not to be used for flight planning or operations.